sensor_id;sensor_type;location;lat;lon;timestamp;pressure;altitude;pressure_sealevel;temperature
45393;BMP280;31129;44.810;10.334;2023-06-14T00:01:49;100191.44;;;20.66
45393;BMP280;31129;44.810;10.334;2023-06-14T00:04:15;100186.31;;;20.85
45393;BMP280;31129;44.810;10.334;2023-06-14T00:06:46;100188.72;;;20.81
45393;BMP280;31129;44.810;10.334;2023-06-14T00:09:12;100192.78;;;20.80
45393;BMP280;31129;44.810;10.334;2023-06-14T00:11:41;100191.47;;;20.81
45393;BMP280;31129;44.810;10.334;2023-06-14T00:14:06;100181.28;;;20.69
45393;BMP280;31129;44.810;10.334;2023-06-14T00:16:32;100185.34;;;20.75
45393;BMP280;31129;44.810;10.334;2023-06-14T00:18:59;100185.34;;;20.68
45393;BMP280;31129;44.810;10.334;2023-06-14T00:21:24;100185.72;;;20.72
45393;BMP280;31129;44.810;10.334;2023-06-14T00:23:50;100179.22;;;20.62
45393;BMP280;31129;44.810;10.334;2023-06-14T00:26:15;100183.31;;;20.61
45393;BMP280;31129;44.810;10.334;2023-06-14T00:28:43;100184.25;;;20.63
45393;BMP280;31129;44.810;10.334;2023-06-14T00:31:08;100184.97;;;20.64
45393;BMP280;31129;44.810;10.334;2023-06-14T00:33:34;100176.06;;;20.58
45393;BMP280;31129;44.810;10.334;2023-06-14T00:35:59;100170.72;;;20.60
45393;BMP280;31129;44.810;10.334;2023-06-14T00:38:25;100167.59;;;20.63
45393;BMP280;31129;44.810;10.334;2023-06-14T00:40:50;100174.03;;;20.50
45393;BMP280;31129;44.810;10.334;2023-06-14T00:43:16;100168.34;;;20.64
45393;BMP280;31129;44.810;10.334;2023-06-14T00:45:42;100171.47;;;20.60
45393;BMP280;31129;44.810;10.334;2023-06-14T00:48:08;100162.41;;;20.60
45393;BMP280;31129;44.810;10.334;2023-06-14T00:50:34;100157.41;;;20.66
45393;BMP280;31129;44.810;10.334;2023-06-14T00:53:01;100165.94;;;20.68
45393;BMP280;31129;44.810;10.334;2023-06-14T00:55:27;100164.84;;;20.78
45393;BMP280;31129;44.810;10.334;2023-06-14T00:57:55;100161.13;;;20.68
45393;BMP280;31129;44.810;10.334;2023-06-14T01:00:21;100164.06;;;20.55
45393;BMP280;31129;44.810;10.334;2023-06-14T01:02:47;100161.06;;;20.45
45393;BMP280;31129;44.810;10.334;2023-06-14T01:05:13;100149.09;;;20.50
45393;BMP280;31129;44.810;10.334;2023-06-14T01:10:53;100154.31;;;20.69
45393;BMP280;31129;44.810;10.334;2023-06-14T01:13:28;100153.34;;;20.51
45393;BMP280;31129;44.810;10.334;2023-06-14T01:15:55;100148.72;;;20.54
45393;BMP280;31129;44.810;10.334;2023-06-14T01:18:22;100145.41;;;20.48
45393;BMP280;31129;44.810;10.334;2023-06-14T01:20:49;100148.19;;;20.48
45393;BMP280;31129;44.810;10.334;2023-06-14T01:23:19;100148.53;;;20.60
45393;BMP280;31129;44.810;10.334;2023-06-14T01:25:45;100147.66;;;20.65
45393;BMP280;31129;44.810;10.334;2023-06-14T01:28:12;100147.25;;;20.61
45393;BMP280;31129;44.810;10.334;2023-06-14T01:30:44;100147.44;;;20.55
45393;BMP280;31129;44.810;10.334;2023-06-14T01:33:14;100142.09;;;20.57
45393;BMP280;31129;44.810;10.334;2023-06-14T01:35:47;100141.50;;;20.59
45393;BMP280;31129;44.810;10.334;2023-06-14T01:38:14;100140.19;;;20.44
45393;BMP280;31129;44.810;10.334;2023-06-14T01:40:40;100134.47;;;20.42
45393;BMP280;31129;44.810;10.334;2023-06-14T01:43:08;100126.38;;;20.52
45393;BMP280;31129;44.810;10.334;2023-06-14T01:45:36;100125.06;;;20.53
45393;BMP280;31129;44.810;10.334;2023-06-14T01:48:02;100121.00;;;20.54
45393;BMP280;31129;44.810;10.334;2023-06-14T01:50:30;100118.94;;;20.47
45393;BMP280;31129;44.810;10.334;2023-06-14T01:52:57;100124.69;;;20.49
45393;BMP280;31129;44.810;10.334;2023-06-14T01:55:22;100120.06;;;20.59
45393;BMP280;31129;44.810;10.334;2023-06-14T01:57:50;100119.53;;;20.61
45393;BMP280;31129;44.810;10.334;2023-06-14T02:00:16;100125.03;;;20.45
45393;BMP280;31129;44.810;10.334;2023-06-14T02:02:43;100122.28;;;20.53
45393;BMP280;31129;44.810;10.334;2023-06-14T02:05:09;100113.59;;;20.41
45393;BMP280;31129;44.810;10.334;2023-06-14T02:07:36;100109.91;;;20.54
45393;BMP280;31129;44.810;10.334;2023-06-14T02:10:02;100122.28;;;20.61
45393;BMP280;31129;44.810;10.334;2023-06-14T02:12:28;100120.47;;;20.63
45393;BMP280;31129;44.810;10.334;2023-06-14T02:14:56;100118.06;;;20.52
45393;BMP280;31129;44.810;10.334;2023-06-14T02:17:23;100113.06;;;20.50
45393;BMP280;31129;44.810;10.334;2023-06-14T02:19:49;100117.47;;;20.38
45393;BMP280;31129;44.810;10.334;2023-06-14T02:22:15;100120.22;;;20.23
45393;BMP280;31129;44.810;10.334;2023-06-14T02:24:42;100102.50;;;20.19
45393;BMP280;31129;44.810;10.334;2023-06-14T02:27:09;100108.41;;;20.23
45393;BMP280;31129;44.810;10.334;2023-06-14T02:29:37;100110.41;;;20.14
45393;BMP280;31129;44.810;10.334;2023-06-14T02:32:04;100113.50;;;20.03
45393;BMP280;31129;44.810;10.334;2023-06-14T02:34:30;100105.53;;;20.00
45393;BMP280;31129;44.810;10.334;2023-06-14T02:36:55;100112.38;;;19.99
45393;BMP280;31129;44.810;10.334;2023-06-14T02:39:22;100095.56;;;19.97
45393;BMP280;31129;44.810;10.334;2023-06-14T02:41:49;100107.44;;;20.05
45393;BMP280;31129;44.810;10.334;2023-06-14T02:44:17;100105.56;;;20.15
45393;BMP280;31129;44.810;10.334;2023-06-14T02:46:43;100111.34;;;20.17
45393;BMP280;31129;44.810;10.334;2023-06-14T02:49:11;100111.50;;;20.11
45393;BMP280;31129;44.810;10.334;2023-06-14T02:51:37;100109.84;;;20.16
45393;BMP280;31129;44.810;10.334;2023-06-14T02:54:02;100104.13;;;20.14
45393;BMP280;31129;44.810;10.334;2023-06-14T02:56:28;100093.94;;;20.17
45393;BMP280;31129;44.810;10.334;2023-06-14T02:58:55;100097.63;;;20.11
45393;BMP280;31129;44.810;10.334;2023-06-14T03:01:21;100103.03;;;20.17
45393;BMP280;31129;44.810;10.334;2023-06-14T03:03:47;100098.56;;;20.06
45393;BMP280;31129;44.810;10.334;2023-06-14T03:06:13;100099.66;;;20.03
45393;BMP280;31129;44.810;10.334;2023-06-14T03:08:42;100095.94;;;20.01
45393;BMP280;31129;44.810;10.334;2023-06-14T03:11:13;100102.03;;;19.92
45393;BMP280;31129;44.810;10.334;2023-06-14T03:13:39;100101.28;;;19.91
45393;BMP280;31129;44.810;10.334;2023-06-14T03:16:06;100100.94;;;20.02
45393;BMP280;31129;44.810;10.334;2023-06-14T03:18:35;100095.41;;;20.02
45393;BMP280;31129;44.810;10.334;2023-06-14T03:21:02;100099.81;;;19.98
45393;BMP280;31129;44.810;10.334;2023-06-14T03:23:30;100097.41;;;19.87
45393;BMP280;31129;44.810;10.334;2023-06-14T03:25:56;100094.78;;;19.81
45393;BMP280;31129;44.810;10.334;2023-06-14T03:28:22;100099.03;;;19.82
45393;BMP280;31129;44.810;10.334;2023-06-14T03:30:48;100091.44;;;19.75
45393;BMP280;31129;44.810;10.334;2023-06-14T03:33:14;100087.38;;;19.76
45393;BMP280;31129;44.810;10.334;2023-06-14T03:35:40;100092.00;;;19.81
45393;BMP280;31129;44.810;10.334;2023-06-14T03:38:07;100093.06;;;19.70
45393;BMP280;31129;44.810;10.334;2023-06-14T03:40:33;100091.09;;;19.79
45393;BMP280;31129;44.810;10.334;2023-06-14T03:43:03;100099.75;;;19.75
45393;BMP280;31129;44.810;10.334;2023-06-14T03:45:28;100099.06;;;19.90
45393;BMP280;31129;44.810;10.334;2023-06-14T03:47:55;100105.47;;;19.77
45393;BMP280;31129;44.810;10.334;2023-06-14T03:50:22;100103.59;;;19.72
45393;BMP280;31129;44.810;10.334;2023-06-14T03:52:49;100110.63;;;19.73
45393;BMP280;31129;44.810;10.334;2023-06-14T03:58:56;100106.53;;;19.66
45393;BMP280;31129;44.810;10.334;2023-06-14T04:01:25;100101.78;;;19.75
45393;BMP280;31129;44.810;10.334;2023-06-14T04:03:55;100110.13;;;19.90
45393;BMP280;31129;44.810;10.334;2023-06-14T04:06:21;100120.16;;;20.08
45393;BMP280;31129;44.810;10.334;2023-06-14T04:08:47;100119.13;;;20.19
45393;BMP280;31129;44.810;10.334;2023-06-14T04:11:15;100130.03;;;20.39
45393;BMP280;31129;44.810;10.334;2023-06-14T04:13:40;100132.09;;;20.77
45393;BMP280;31129;44.810;10.334;2023-06-14T04:16:09;100135.97;;;20.89
45393;BMP280;31129;44.810;10.334;2023-06-14T04:18:35;100143.72;;;20.37
45393;BMP280;31129;44.810;10.334;2023-06-14T04:21:00;100142.41;;;20.23
45393;BMP280;31129;44.810;10.334;2023-06-14T04:23:28;100137.72;;;20.10
45393;BMP280;31129;44.810;10.334;2023-06-14T04:25:54;100140.53;;;20.18
45393;BMP280;31129;44.810;10.334;2023-06-14T04:28:19;100142.94;;;20.29
45393;BMP280;31129;44.810;10.334;2023-06-14T04:30:45;100152.06;;;20.83
45393;BMP280;31129;44.810;10.334;2023-06-14T04:33:13;100159.31;;;20.86
45393;BMP280;31129;44.810;10.334;2023-06-14T04:35:40;100157.25;;;20.56
45393;BMP280;31129;44.810;10.334;2023-06-14T04:38:06;100164.81;;;20.48
45393;BMP280;31129;44.810;10.334;2023-06-14T04:40:35;100159.09;;;20.69
45393;BMP280;31129;44.810;10.334;2023-06-14T04:43:09;100161.50;;;20.72
45393;BMP280;31129;44.810;10.334;2023-06-14T04:45:38;100160.56;;;20.77
45393;BMP280;31129;44.810;10.334;2023-06-14T04:48:06;100161.66;;;20.51
45393;BMP280;31129;44.810;10.334;2023-06-14T04:50:32;100163.91;;;20.68
45393;BMP280;31129;44.810;10.334;2023-06-14T04:52:58;100170.03;;;20.82
45393;BMP280;31129;44.810;10.334;2023-06-14T04:55:25;100166.69;;;20.68
45393;BMP280;31129;44.810;10.334;2023-06-14T04:57:52;100166.31;;;20.79
45393;BMP280;31129;44.810;10.334;2023-06-14T05:00:20;100172.78;;;21.12
45393;BMP280;31129;44.810;10.334;2023-06-14T05:02:46;100167.44;;;21.07
45393;BMP280;31129;44.810;10.334;2023-06-14T05:05:12;100171.47;;;21.21
45393;BMP280;31129;44.810;10.334;2023-06-14T05:07:38;100174.25;;;21.06
45393;BMP280;31129;44.810;10.334;2023-06-14T05:10:04;100169.25;;;21.12
45393;BMP280;31129;44.810;10.334;2023-06-14T05:12:31;100170.94;;;21.15
45393;BMP280;31129;44.810;10.334;2023-06-14T05:14:57;100168.72;;;21.13
45393;BMP280;31129;44.810;10.334;2023-06-14T05:17:24;100177.03;;;21.21
45393;BMP280;31129;44.810;10.334;2023-06-14T05:19:49;100187.97;;;21.26
45393;BMP280;31129;44.810;10.334;2023-06-14T05:22:17;100172.25;;;21.14
45393;BMP280;31129;44.810;10.334;2023-06-14T05:24:43;100188.09;;;21.59
45393;BMP280;31129;44.810;10.334;2023-06-14T05:27:08;100181.84;;;21.83
45393;BMP280;31129;44.810;10.334;2023-06-14T05:29:34;100185.59;;;21.86
45393;BMP280;31129;44.810;10.334;2023-06-14T05:31:59;100183.34;;;21.84
45393;BMP280;31129;44.810;10.334;2023-06-14T05:34:25;100177.75;;;21.92
45393;BMP280;31129;44.810;10.334;2023-06-14T05:36:50;100167.56;;;22.02
45393;BMP280;31129;44.810;10.334;2023-06-14T05:39:16;100177.13;;;22.08
45393;BMP280;31129;44.810;10.334;2023-06-14T05:41:42;100178.38;;;22.15
45393;BMP280;31129;44.810;10.334;2023-06-14T05:44:10;100176.97;;;22.06
45393;BMP280;31129;44.810;10.334;2023-06-14T05:46:36;100180.56;;;21.84
45393;BMP280;31129;44.810;10.334;2023-06-14T05:49:01;100177.75;;;21.92
45393;BMP280;31129;44.810;10.334;2023-06-14T05:51:27;100170.56;;;21.81
45393;BMP280;31129;44.810;10.334;2023-06-14T05:53:52;100171.69;;;21.86
45393;BMP280;31129;44.810;10.334;2023-06-14T05:56:18;100173.50;;;21.83
45393;BMP280;31129;44.810;10.334;2023-06-14T05:58:47;100178.22;;;21.73
45393;BMP280;31129;44.810;10.334;2023-06-14T06:01:13;100177.69;;;22.07
45393;BMP280;31129;44.810;10.334;2023-06-14T06:03:39;100179.88;;;22.16
45393;BMP280;31129;44.810;10.334;2023-06-14T06:06:04;100178.00;;;22.18
45393;BMP280;31129;44.810;10.334;2023-06-14T06:08:30;100184.16;;;22.17
45393;BMP280;31129;44.810;10.334;2023-06-14T06:10:56;100178.75;;;22.19
45393;BMP280;31129;44.810;10.334;2023-06-14T06:13:22;100184.31;;;22.19
45393;BMP280;31129;44.810;10.334;2023-06-14T06:15:48;100185.69;;;22.03
45393;BMP280;31129;44.810;10.334;2023-06-14T06:18:14;100187.22;;;21.89
45393;BMP280;31129;44.810;10.334;2023-06-14T06:20:39;100176.66;;;21.95
45393;BMP280;31129;44.810;10.334;2023-06-14T06:23:05;100183.09;;;21.97
45393;BMP280;31129;44.810;10.334;2023-06-14T06:25:33;100187.09;;;22.11
45393;BMP280;31129;44.810;10.334;2023-06-14T06:27:59;100181.13;;;21.90
45393;BMP280;31129;44.810;10.334;2023-06-14T06:30:25;100187.00;;;22.02
45393;BMP280;31129;44.810;10.334;2023-06-14T06:32:51;100186.09;;;22.32
45393;BMP280;31129;44.810;10.334;2023-06-14T06:35:17;100189.00;;;22.41
45393;BMP280;31129;44.810;10.334;2023-06-14T06:37:42;100201.22;;;22.46
45393;BMP280;31129;44.810;10.334;2023-06-14T06:40:09;100196.75;;;22.43
45393;BMP280;31129;44.810;10.334;2023-06-14T06:42:37;100196.84;;;22.60
45393;BMP280;31129;44.810;10.334;2023-06-14T06:45:04;100211.00;;;22.79
45393;BMP280;31129;44.810;10.334;2023-06-14T06:47:33;100203.59;;;22.74
45393;BMP280;31129;44.810;10.334;2023-06-14T06:49:58;100202.63;;;22.54
45393;BMP280;31129;44.810;10.334;2023-06-14T06:52:24;100214.94;;;22.44
45393;BMP280;31129;44.810;10.334;2023-06-14T06:54:49;100215.97;;;22.23
45393;BMP280;31129;44.810;10.334;2023-06-14T06:57:20;100214.56;;;22.47
45393;BMP280;31129;44.810;10.334;2023-06-14T06:59:47;100220.75;;;22.63
45393;BMP280;31129;44.810;10.334;2023-06-14T07:02:13;100222.50;;;22.76
45393;BMP280;31129;44.810;10.334;2023-06-14T07:04:38;100227.69;;;22.79
45393;BMP280;31129;44.810;10.334;2023-06-14T07:07:04;100227.28;;;22.83
45393;BMP280;31129;44.810;10.334;2023-06-14T07:09:29;100219.66;;;22.83
45393;BMP280;31129;44.810;10.334;2023-06-14T07:11:55;100223.19;;;23.08
45393;BMP280;31129;44.810;10.334;2023-06-14T07:14:20;100232.72;;;23.23
45393;BMP280;31129;44.810;10.334;2023-06-14T07:16:48;100224.44;;;23.49
45393;BMP280;31129;44.810;10.334;2023-06-14T07:19:14;100230.25;;;23.44
45393;BMP280;31129;44.810;10.334;2023-06-14T07:21:40;100232.31;;;23.26
45393;BMP280;31129;44.810;10.334;2023-06-14T07:24:06;100235.06;;;23.09
45393;BMP280;31129;44.810;10.334;2023-06-14T07:26:33;100231.25;;;22.97
45393;BMP280;31129;44.810;10.334;2023-06-14T07:28:58;100237.84;;;22.84
45393;BMP280;31129;44.810;10.334;2023-06-14T07:31:24;100240.81;;;22.86
45393;BMP280;31129;44.810;10.334;2023-06-14T07:33:50;100243.00;;;22.88
45393;BMP280;31129;44.810;10.334;2023-06-14T07:36:15;100234.16;;;22.82
45393;BMP280;31129;44.810;10.334;2023-06-14T07:38:41;100245.91;;;22.97
45393;BMP280;31129;44.810;10.334;2023-06-14T07:41:06;100246.44;;;23.21
45393;BMP280;31129;44.810;10.334;2023-06-14T07:43:32;100247.09;;;23.12
45393;BMP280;31129;44.810;10.334;2023-06-14T07:45:57;100241.47;;;23.19
45393;BMP280;31129;44.810;10.334;2023-06-14T07:48:23;100252.50;;;23.09
45393;BMP280;31129;44.810;10.334;2023-06-14T07:50:48;100257.69;;;23.13
45393;BMP280;31129;44.810;10.334;2023-06-14T07:53:14;100255.25;;;23.34
45393;BMP280;31129;44.810;10.334;2023-06-14T07:55:39;100258.72;;;23.18
45393;BMP280;31129;44.810;10.334;2023-06-14T07:58:07;100258.06;;;23.09
45393;BMP280;31129;44.810;10.334;2023-06-14T08:00:33;100260.63;;;22.90
45393;BMP280;31129;44.810;10.334;2023-06-14T08:02:58;100256.69;;;22.68
45393;BMP280;31129;44.810;10.334;2023-06-14T08:05:28;100258.25;;;22.87
45393;BMP280;31129;44.810;10.334;2023-06-14T08:07:54;100254.59;;;22.77
45393;BMP280;31129;44.810;10.334;2023-06-14T08:10:21;100258.69;;;22.76
45393;BMP280;31129;44.810;10.334;2023-06-14T08:12:47;100257.16;;;22.82
45393;BMP280;31129;44.810;10.334;2023-06-14T08:15:13;100263.69;;;23.02
45393;BMP280;31129;44.810;10.334;2023-06-14T08:17:39;100269.25;;;23.27
45393;BMP280;31129;44.810;10.334;2023-06-14T08:20:05;100268.22;;;23.57
45393;BMP280;31129;44.810;10.334;2023-06-14T08:22:31;100274.06;;;23.68
45393;BMP280;31129;44.810;10.334;2023-06-14T08:25:02;100276.59;;;23.57
45393;BMP280;31129;44.810;10.334;2023-06-14T08:27:27;100276.66;;;23.49
45393;BMP280;31129;44.810;10.334;2023-06-14T08:29:53;100275.56;;;23.44
45393;BMP280;31129;44.810;10.334;2023-06-14T08:32:19;100286.03;;;23.36
45393;BMP280;31129;44.810;10.334;2023-06-14T08:34:44;100277.69;;;23.36
45393;BMP280;31129;44.810;10.334;2023-06-14T08:37:13;100284.78;;;23.54
45393;BMP280;31129;44.810;10.334;2023-06-14T08:39:38;100295.00;;;23.52
45393;BMP280;31129;44.810;10.334;2023-06-14T08:42:05;100284.78;;;23.72
45393;BMP280;31129;44.810;10.334;2023-06-14T08:44:32;100293.63;;;23.61
45393;BMP280;31129;44.810;10.334;2023-06-14T08:46:59;100283.63;;;23.58
45393;BMP280;31129;44.810;10.334;2023-06-14T08:49:25;100293.31;;;23.57
45393;BMP280;31129;44.810;10.334;2023-06-14T08:51:58;100292.84;;;23.43
45393;BMP280;31129;44.810;10.334;2023-06-14T08:54:25;100297.59;;;23.33
45393;BMP280;31129;44.810;10.334;2023-06-14T08:56:53;100300.97;;;23.48
45393;BMP280;31129;44.810;10.334;2023-06-14T08:59:28;100300.28;;;23.82
45393;BMP280;31129;44.810;10.334;2023-06-14T09:01:56;100300.91;;;24.08
45393;BMP280;31129;44.810;10.334;2023-06-14T09:04:22;100298.91;;;24.35
45393;BMP280;31129;44.810;10.334;2023-06-14T09:06:49;100299.41;;;24.51
45393;BMP280;31129;44.810;10.334;2023-06-14T09:09:21;100299.63;;;24.62
45393;BMP280;31129;44.810;10.334;2023-06-14T09:11:49;100299.75;;;24.81
45393;BMP280;31129;44.810;10.334;2023-06-14T09:14:15;100290.53;;;24.98
45393;BMP280;31129;44.810;10.334;2023-06-14T09:16:40;100306.34;;;25.32
45393;BMP280;31129;44.810;10.334;2023-06-14T09:19:06;100300.19;;;25.43
45393;BMP280;31129;44.810;10.334;2023-06-14T09:21:34;100295.78;;;25.40
45393;BMP280;31129;44.810;10.334;2023-06-14T09:24:01;100299.75;;;25.75
45393;BMP280;31129;44.810;10.334;2023-06-14T09:26:27;100309.63;;;25.96
45393;BMP280;31129;44.810;10.334;2023-06-14T09:28:53;100305.50;;;25.87
45393;BMP280;31129;44.810;10.334;2023-06-14T09:31:20;100312.25;;;26.13
45393;BMP280;31129;44.810;10.334;2023-06-14T09:33:48;100306.69;;;26.53
45393;BMP280;31129;44.810;10.334;2023-06-14T09:36:18;100302.50;;;26.33
45393;BMP280;31129;44.810;10.334;2023-06-14T09:38:56;100304.03;;;26.55
45393;BMP280;31129;44.810;10.334;2023-06-14T09:41:39;100300.34;;;26.03
45393;BMP280;31129;44.810;10.334;2023-06-14T09:44:06;100297.84;;;25.68
45393;BMP280;31129;44.810;10.334;2023-06-14T09:46:33;100296.81;;;25.54
45393;BMP280;31129;44.810;10.334;2023-06-14T09:48:59;100296.00;;;25.15
45393;BMP280;31129;44.810;10.334;2023-06-14T09:51:25;100288.53;;;25.27
45393;BMP280;31129;44.810;10.334;2023-06-14T09:53:52;100296.22;;;25.56
45393;BMP280;31129;44.810;10.334;2023-06-14T09:56:28;100297.09;;;25.77
45393;BMP280;31129;44.810;10.334;2023-06-14T09:58:58;100296.66;;;25.71
45393;BMP280;31129;44.810;10.334;2023-06-14T10:01:25;100294.28;;;25.77
45393;BMP280;31129;44.810;10.334;2023-06-14T10:04:03;100293.13;;;25.81
45393;BMP280;31129;44.810;10.334;2023-06-14T10:06:29;100295.19;;;25.99
45393;BMP280;31129;44.810;10.334;2023-06-14T10:08:59;100297.69;;;25.76
45393;BMP280;31129;44.810;10.334;2023-06-14T10:11:26;100301.25;;;25.67
45393;BMP280;31129;44.810;10.334;2023-06-14T10:13:53;100295.50;;;25.55
45393;BMP280;31129;44.810;10.334;2023-06-14T10:16:30;100292.25;;;25.59
45393;BMP280;31129;44.810;10.334;2023-06-14T10:19:20;100292.97;;;25.50
45393;BMP280;31129;44.810;10.334;2023-06-14T10:22:07;100289.28;;;25.47
45393;BMP280;31129;44.810;10.334;2023-06-14T10:24:41;100282.91;;;25.18
45393;BMP280;31129;44.810;10.334;2023-06-14T10:27:07;100283.34;;;25.05
45393;BMP280;31129;44.810;10.334;2023-06-14T10:30:09;100282.81;;;25.25
45393;BMP280;31129;44.810;10.334;2023-06-14T10:32:34;100275.16;;;25.26
45393;BMP280;31129;44.810;10.334;2023-06-14T10:35:04;100274.84;;;25.12
45393;BMP280;31129;44.810;10.334;2023-06-14T10:37:31;100274.94;;;24.95
45393;BMP280;31129;44.810;10.334;2023-06-14T10:39:56;100277.00;;;24.95
45393;BMP280;31129;44.810;10.334;2023-06-14T10:42:28;100272.19;;;25.14
45393;BMP280;31129;44.810;10.334;2023-06-14T10:44:57;100275.44;;;25.30
45393;BMP280;31129;44.810;10.334;2023-06-14T10:47:31;100268.84;;;25.25
45393;BMP280;31129;44.810;10.334;2023-06-14T10:50:05;100271.91;;;25.20
45393;BMP280;31129;44.810;10.334;2023-06-14T10:52:42;100270.34;;;25.55
45393;BMP280;31129;44.810;10.334;2023-06-14T10:55:12;100272.69;;;25.68
45393;BMP280;31129;44.810;10.334;2023-06-14T10:57:41;100270.03;;;25.51
45393;BMP280;31129;44.810;10.334;2023-06-14T11:00:08;100273.56;;;25.52
45393;BMP280;31129;44.810;10.334;2023-06-14T11:05:26;100267.97;;;25.61
45393;BMP280;31129;44.810;10.334;2023-06-14T11:08:03;100260.63;;;25.75
45393;BMP280;31129;44.810;10.334;2023-06-14T11:10:41;100254.88;;;25.73
45393;BMP280;31129;44.810;10.334;2023-06-14T11:13:07;100257.06;;;25.85
45393;BMP280;31129;44.810;10.334;2023-06-14T11:15:35;100255.63;;;25.84
45393;BMP280;31129;44.810;10.334;2023-06-14T11:18:02;100256.22;;;25.72
45393;BMP280;31129;44.810;10.334;2023-06-14T11:20:31;100253.09;;;25.78
45393;BMP280;31129;44.810;10.334;2023-06-14T11:22:57;100245.38;;;26.07
45393;BMP280;31129;44.810;10.334;2023-06-14T11:25:22;100234.31;;;26.19
45393;BMP280;31129;44.810;10.334;2023-06-14T11:27:51;100239.84;;;26.38
45393;BMP280;31129;44.810;10.334;2023-06-14T11:30:17;100234.97;;;26.39
45393;BMP280;31129;44.810;10.334;2023-06-14T11:32:49;100232.69;;;26.25
45393;BMP280;31129;44.810;10.334;2023-06-14T11:35:16;100231.13;;;26.13
45393;BMP280;31129;44.810;10.334;2023-06-14T11:37:42;100232.13;;;26.08
45393;BMP280;31129;44.810;10.334;2023-06-14T11:40:11;100237.97;;;26.31
45393;BMP280;31129;44.810;10.334;2023-06-14T11:42:40;100231.38;;;26.57
45393;BMP280;31129;44.810;10.334;2023-06-14T11:45:10;100228.25;;;26.32
45393;BMP280;31129;44.810;10.334;2023-06-14T11:47:37;100234.88;;;26.27
45393;BMP280;31129;44.810;10.334;2023-06-14T11:50:05;100238.94;;;26.05
45393;BMP280;31129;44.810;10.334;2023-06-14T11:52:36;100231.59;;;25.90
45393;BMP280;31129;44.810;10.334;2023-06-14T11:55:02;100225.41;;;25.92
45393;BMP280;31129;44.810;10.334;2023-06-14T11:57:30;100233.56;;;26.28
45393;BMP280;31129;44.810;10.334;2023-06-14T11:59:59;100228.22;;;26.42
45393;BMP280;31129;44.810;10.334;2023-06-14T12:02:24;100231.38;;;26.57
45393;BMP280;31129;44.810;10.334;2023-06-14T12:04:50;100222.44;;;26.49
45393;BMP280;31129;44.810;10.334;2023-06-14T12:07:17;100219.66;;;26.40
45393;BMP280;31129;44.810;10.334;2023-06-14T12:12:23;100205.88;;;26.84
45393;BMP280;31129;44.810;10.334;2023-06-14T12:14:51;100210.19;;;26.97
45393;BMP280;31129;44.810;10.334;2023-06-14T12:17:17;100208.00;;;27.16
45393;BMP280;31129;44.810;10.334;2023-06-14T12:19:44;100201.97;;;27.10
45393;BMP280;31129;44.810;10.334;2023-06-14T12:22:14;100197.13;;;26.68
45393;BMP280;31129;44.810;10.334;2023-06-14T12:24:43;100196.22;;;26.66
45393;BMP280;31129;44.810;10.334;2023-06-14T12:27:09;100195.75;;;26.48
45393;BMP280;31129;44.810;10.334;2023-06-14T12:29:37;100196.44;;;26.80
45393;BMP280;31129;44.810;10.334;2023-06-14T12:32:03;100194.94;;;27.09
45393;BMP280;31129;44.810;10.334;2023-06-14T12:34:28;100192.22;;;26.69
45393;BMP280;31129;44.810;10.334;2023-06-14T12:36:54;100196.31;;;26.99
45393;BMP280;31129;44.810;10.334;2023-06-14T12:39:20;100197.59;;;27.07
45393;BMP280;31129;44.810;10.334;2023-06-14T12:41:46;100194.81;;;27.40
45393;BMP280;31129;44.810;10.334;2023-06-14T12:44:12;100199.31;;;27.90
45393;BMP280;31129;44.810;10.334;2023-06-14T12:46:41;100207.25;;;28.05
45393;BMP280;31129;44.810;10.334;2023-06-14T12:49:11;100190.50;;;27.72
45393;BMP280;31129;44.810;10.334;2023-06-14T12:51:38;100196.66;;;26.93
45393;BMP280;31129;44.810;10.334;2023-06-14T12:54:07;100181.41;;;26.54
45393;BMP280;31129;44.810;10.334;2023-06-14T12:56:32;100194.91;;;26.67
45393;BMP280;31129;44.810;10.334;2023-06-14T12:58:58;100200.66;;;26.38
45393;BMP280;31129;44.810;10.334;2023-06-14T13:01:24;100190.44;;;26.52
45393;BMP280;31129;44.810;10.334;2023-06-14T13:03:50;100202.91;;;26.61
45393;BMP280;31129;44.810;10.334;2023-06-14T13:06:17;100189.31;;;26.67
45393;BMP280;31129;44.810;10.334;2023-06-14T13:08:42;100183.72;;;26.67
45393;BMP280;31129;44.810;10.334;2023-06-14T13:11:08;100182.69;;;26.62
45393;BMP280;31129;44.810;10.334;2023-06-14T13:13:34;100194.66;;;26.84
45393;BMP280;31129;44.810;10.334;2023-06-14T13:16:00;100189.50;;;27.02
45393;BMP280;31129;44.810;10.334;2023-06-14T13:18:26;100192.13;;;26.88
45393;BMP280;31129;44.810;10.334;2023-06-14T13:20:51;100194.28;;;27.32
45393;BMP280;31129;44.810;10.334;2023-06-14T13:23:20;100197.38;;;27.48
45393;BMP280;31129;44.810;10.334;2023-06-14T13:25:45;100194.06;;;28.07
45393;BMP280;31129;44.810;10.334;2023-06-14T13:28:11;100186.88;;;28.04
45393;BMP280;31129;44.810;10.334;2023-06-14T13:30:36;100191.50;;;28.23
45393;BMP280;31129;44.810;10.334;2023-06-14T13:33:02;100188.84;;;28.13
45393;BMP280;31129;44.810;10.334;2023-06-14T13:35:28;100186.75;;;28.14
45393;BMP280;31129;44.810;10.334;2023-06-14T13:37:56;100182.97;;;28.33
45393;BMP280;31129;44.810;10.334;2023-06-14T13:40:22;100176.88;;;27.45
45393;BMP280;31129;44.810;10.334;2023-06-14T13:42:47;100182.53;;;27.57
45393;BMP280;31129;44.810;10.334;2023-06-14T13:45:13;100178.19;;;27.65
45393;BMP280;31129;44.810;10.334;2023-06-14T13:47:39;100172.34;;;27.73
45393;BMP280;31129;44.810;10.334;2023-06-14T13:50:05;100185.00;;;27.74
45393;BMP280;31129;44.810;10.334;2023-06-14T13:52:31;100180.47;;;27.57
45393;BMP280;31129;44.810;10.334;2023-06-14T13:54:56;100177.56;;;27.67
45393;BMP280;31129;44.810;10.334;2023-06-14T13:57:22;100173.22;;;27.43